sensor_id;sensor_type;location;lat;lon;timestamp;temperature;humidity
32787;DHT22;19139;49.372;8.580;2022-11-20T00:01:09;18.60;98.10
32787;DHT22;19139;49.372;8.580;2022-11-20T00:03:36;18.60;98.10
32787;DHT22;19139;49.372;8.580;2022-11-20T00:06:09;18.60;98.10
32787;DHT22;19139;49.372;8.580;2022-11-20T00:08:36;18.60;98.10
32787;DHT22;19139;49.372;8.580;2022-11-20T00:11:12;18.60;98.10
32787;DHT22;19139;49.372;8.580;2022-11-20T00:13:45;18.60;98.10
32787;DHT22;19139;49.372;8.580;2022-11-20T00:16:16;18.60;98.10
32787;DHT22;19139;49.372;8.580;2022-11-20T00:18:43;18.60;98.10
32787;DHT22;19139;49.372;8.580;2022-11-20T00:21:16;18.60;98.00
32787;DHT22;19139;49.372;8.580;2022-11-20T00:23:44;18.60;98.00
32787;DHT22;19139;49.372;8.580;2022-11-20T00:26:15;18.60;98.00
32787;DHT22;19139;49.372;8.580;2022-11-20T00:28:43;18.60;98.00
32787;DHT22;19139;49.372;8.580;2022-11-20T00:31:13;18.60;98.00
32787;DHT22;19139;49.372;8.580;2022-11-20T00:33:42;18.60;98.10
32787;DHT22;19139;49.372;8.580;2022-11-20T00:36:19;18.60;98.10
32787;DHT22;19139;49.372;8.580;2022-11-20T00:38:46;18.60;98.10
32787;DHT22;19139;49.372;8.580;2022-11-20T00:41:14;18.60;98.00
32787;DHT22;19139;49.372;8.580;2022-11-20T00:43:42;18.60;98.00
32787;DHT22;19139;49.372;8.580;2022-11-20T00:46:15;18.60;98.00
32787;DHT22;19139;49.372;8.580;2022-11-20T00:48:43;18.60;98.00
32787;DHT22;19139;49.372;8.580;2022-11-20T00:51:16;18.60;98.00
32787;DHT22;19139;49.372;8.580;2022-11-20T00:53:43;18.60;98.00
32787;DHT22;19139;49.372;8.580;2022-11-20T00:56:12;18.60;98.00
32787;DHT22;19139;49.372;8.580;2022-11-20T00:58:41;18.60;98.00
32787;DHT22;19139;49.372;8.580;2022-11-20T01:01:18;18.60;98.00
32787;DHT22;19139;49.372;8.580;2022-11-20T01:03:47;18.60;98.00
32787;DHT22;19139;49.372;8.580;2022-11-20T01:06:22;18.60;98.00
32787;DHT22;19139;49.372;8.580;2022-11-20T01:08:50;18.60;98.00
32787;DHT22;19139;49.372;8.580;2022-11-20T01:11:31;18.60;98.10
32787;DHT22;19139;49.372;8.580;2022-11-20T01:14:05;18.60;98.00
32787;DHT22;19139;49.372;8.580;2022-11-20T01:16:40;18.60;98.00
32787;DHT22;19139;49.372;8.580;2022-11-20T01:19:10;18.60;98.00
32787;DHT22;19139;49.372;8.580;2022-11-20T01:21:44;18.60;98.00
32787;DHT22;19139;49.372;8.580;2022-11-20T01:24:13;18.60;98.10
32787;DHT22;19139;49.372;8.580;2022-11-20T01:26:41;18.60;98.00
32787;DHT22;19139;49.372;8.580;2022-11-20T01:29:20;18.60;98.00
32787;DHT22;19139;49.372;8.580;2022-11-20T01:31:52;18.60;98.00
32787;DHT22;19139;49.372;8.580;2022-11-20T01:34:24;18.60;98.00
32787;DHT22;19139;49.372;8.580;2022-11-20T01:36:52;18.60;98.00
32787;DHT22;19139;49.372;8.580;2022-11-20T01:39:24;18.60;98.00
32787;DHT22;19139;49.372;8.580;2022-11-20T01:41:52;18.60;98.00
32787;DHT22;19139;49.372;8.580;2022-11-20T01:44:58;18.60;98.00
32787;DHT22;19139;49.372;8.580;2022-11-20T01:50:17;18.60;98.00
32787;DHT22;19139;49.372;8.580;2022-11-20T01:52:58;18.60;98.00
32787;DHT22;19139;49.372;8.580;2022-11-20T01:55:30;18.60;98.00
32787;DHT22;19139;49.372;8.580;2022-11-20T01:58:03;18.60;98.00
32787;DHT22;19139;49.372;8.580;2022-11-20T02:00:30;18.60;98.00
32787;DHT22;19139;49.372;8.580;2022-11-20T02:03:15;18.60;98.00
32787;DHT22;19139;49.372;8.580;2022-11-20T02:05:55;18.60;98.00
32787;DHT22;19139;49.372;8.580;2022-11-20T02:08:23;18.50;98.00
32787;DHT22;19139;49.372;8.580;2022-11-20T02:10:50;18.50;98.00
32787;DHT22;19139;49.372;8.580;2022-11-20T02:13:21;18.60;98.00
32787;DHT22;19139;49.372;8.580;2022-11-20T02:16:34;18.60;98.00
32787;DHT22;19139;49.372;8.580;2022-11-20T02:19:03;18.60;98.00
32787;DHT22;19139;49.372;8.580;2022-11-20T02:21:40;18.60;98.00
32787;DHT22;19139;49.372;8.580;2022-11-20T02:24:18;18.50;98.30
32787;DHT22;19139;49.372;8.580;2022-11-20T02:26:54;18.60;98.00
32787;DHT22;19139;49.372;8.580;2022-11-20T02:29:32;18.50;98.00
32787;DHT22;19139;49.372;8.580;2022-11-20T02:32:02;18.50;98.30
32787;DHT22;19139;49.372;8.580;2022-11-20T02:34:33;18.60;98.00
32787;DHT22;19139;49.372;8.580;2022-11-20T02:37:00;18.60;98.00
32787;DHT22;19139;49.372;8.580;2022-11-20T02:39:27;18.60;98.00
32787;DHT22;19139;49.372;8.580;2022-11-20T02:41:56;18.60;98.00
32787;DHT22;19139;49.372;8.580;2022-11-20T02:44:23;18.50;98.00
32787;DHT22;19139;49.372;8.580;2022-11-20T02:46:49;18.50;98.00
32787;DHT22;19139;49.372;8.580;2022-11-20T02:49:21;18.60;98.00
32787;DHT22;19139;49.372;8.580;2022-11-20T02:51:53;18.50;98.00
32787;DHT22;19139;49.372;8.580;2022-11-20T02:54:19;18.60;98.00
32787;DHT22;19139;49.372;8.580;2022-11-20T02:56:46;18.50;98.00
32787;DHT22;19139;49.372;8.580;2022-11-20T02:59:12;18.50;97.90
32787;DHT22;19139;49.372;8.580;2022-11-20T03:01:39;18.50;98.00
32787;DHT22;19139;49.372;8.580;2022-11-20T03:04:06;18.50;98.00
32787;DHT22;19139;49.372;8.580;2022-11-20T03:06:32;18.50;97.90
32787;DHT22;19139;49.372;8.580;2022-11-20T03:08:59;18.50;98.00
32787;DHT22;19139;49.372;8.580;2022-11-20T03:11:26;18.50;98.00
32787;DHT22;19139;49.372;8.580;2022-11-20T03:13:52;18.50;98.30
32787;DHT22;19139;49.372;8.580;2022-11-20T03:16:24;18.50;97.90
32787;DHT22;19139;49.372;8.580;2022-11-20T03:18:52;18.50;98.00
32787;DHT22;19139;49.372;8.580;2022-11-20T03:21:20;18.50;98.00
32787;DHT22;19139;49.372;8.580;2022-11-20T03:23:53;18.50;98.30
32787;DHT22;19139;49.372;8.580;2022-11-20T03:26:22;18.50;98.00
32787;DHT22;19139;49.372;8.580;2022-11-20T03:28:51;18.50;98.00
32787;DHT22;19139;49.372;8.580;2022-11-20T03:31:25;18.50;98.00
32787;DHT22;19139;49.372;8.580;2022-11-20T03:33:52;18.50;97.90
32787;DHT22;19139;49.372;8.580;2022-11-20T03:36:20;18.50;97.90
32787;DHT22;19139;49.372;8.580;2022-11-20T03:38:54;18.50;97.90
32787;DHT22;19139;49.372;8.580;2022-11-20T03:41:26;18.50;97.90
32787;DHT22;19139;49.372;8.580;2022-11-20T03:44:00;18.50;97.90
32787;DHT22;19139;49.372;8.580;2022-11-20T03:46:32;18.50;97.90
32787;DHT22;19139;49.372;8.580;2022-11-20T03:48:59;18.50;97.90
32787;DHT22;19139;49.372;8.580;2022-11-20T03:51:33;18.50;97.90
32787;DHT22;19139;49.372;8.580;2022-11-20T03:54:02;18.50;97.90
32787;DHT22;19139;49.372;8.580;2022-11-20T03:56:31;18.50;97.90
32787;DHT22;19139;49.372;8.580;2022-11-20T03:59:04;18.50;98.00
32787;DHT22;19139;49.372;8.580;2022-11-20T04:01:35;18.50;97.90
32787;DHT22;19139;49.372;8.580;2022-11-20T04:04:03;18.50;97.90
32787;DHT22;19139;49.372;8.580;2022-11-20T04:06:35;18.50;97.90
32787;DHT22;19139;49.372;8.580;2022-11-20T04:09:03;18.50;97.90
32787;DHT22;19139;49.372;8.580;2022-11-20T04:11:31;18.50;97.90
32787;DHT22;19139;49.372;8.580;2022-11-20T04:14:05;18.50;98.00
32787;DHT22;19139;49.372;8.580;2022-11-20T04:16:34;18.50;97.90
32787;DHT22;19139;49.372;8.580;2022-11-20T04:19:04;18.50;97.90
32787;DHT22;19139;49.372;8.580;2022-11-20T04:21:30;18.50;97.90
32787;DHT22;19139;49.372;8.580;2022-11-20T04:24:02;18.50;98.00
32787;DHT22;19139;49.372;8.580;2022-11-20T04:26:34;18.50;97.90
32787;DHT22;19139;49.372;8.580;2022-11-20T04:29:00;18.50;97.90
32787;DHT22;19139;49.372;8.580;2022-11-20T04:31:32;18.50;97.90
32787;DHT22;19139;49.372;8.580;2022-11-20T04:34:03;18.50;97.90
32787;DHT22;19139;49.372;8.580;2022-11-20T04:36:31;18.50;97.90
32787;DHT22;19139;49.372;8.580;2022-11-20T04:39:05;18.50;97.90
32787;DHT22;19139;49.372;8.580;2022-11-20T04:41:34;18.50;97.90
32787;DHT22;19139;49.372;8.580;2022-11-20T04:44:03;18.50;97.90
32787;DHT22;19139;49.372;8.580;2022-11-20T04:46:39;18.50;97.90
32787;DHT22;19139;49.372;8.580;2022-11-20T04:49:11;18.50;97.90
32787;DHT22;19139;49.372;8.580;2022-11-20T04:51:43;18.50;97.90
32787;DHT22;19139;49.372;8.580;2022-11-20T04:54:11;18.50;97.90
32787;DHT22;19139;49.372;8.580;2022-11-20T04:56:42;18.50;98.20
32787;DHT22;19139;49.372;8.580;2022-11-20T04:59:14;18.50;97.90
32787;DHT22;19139;49.372;8.580;2022-11-20T05:01:41;18.50;97.90
32787;DHT22;19139;49.372;8.580;2022-11-20T05:04:12;18.50;97.90
32787;DHT22;19139;49.372;8.580;2022-11-20T05:06:43;18.50;97.90
32787;DHT22;19139;49.372;8.580;2022-11-20T05:09:12;18.50;97.90
32787;DHT22;19139;49.372;8.580;2022-11-20T05:11:44;18.50;97.90
32787;DHT22;19139;49.372;8.580;2022-11-20T05:14:16;18.50;97.90
32787;DHT22;19139;49.372;8.580;2022-11-20T05:16:43;18.50;97.80
32787;DHT22;19139;49.372;8.580;2022-11-20T05:19:09;18.50;97.90
32787;DHT22;19139;49.372;8.580;2022-11-20T05:21:41;18.50;97.90
32787;DHT22;19139;49.372;8.580;2022-11-20T05:24:12;18.50;97.90
32787;DHT22;19139;49.372;8.580;2022-11-20T05:26:39;18.50;97.80
32787;DHT22;19139;49.372;8.580;2022-11-20T05:29:11;18.50;97.80
32787;DHT22;19139;49.372;8.580;2022-11-20T05:31:43;18.50;97.90
32787;DHT22;19139;49.372;8.580;2022-11-20T05:34:10;18.50;97.90
32787;DHT22;19139;49.372;8.580;2022-11-20T05:36:41;18.50;97.80
32787;DHT22;19139;49.372;8.580;2022-11-20T05:39:12;18.50;97.80
32787;DHT22;19139;49.372;8.580;2022-11-20T05:41:39;18.50;97.80
32787;DHT22;19139;49.372;8.580;2022-11-20T05:44:11;18.50;97.80
32787;DHT22;19139;49.372;8.580;2022-11-20T05:46:42;18.50;97.80
32787;DHT22;19139;49.372;8.580;2022-11-20T05:49:14;18.50;97.80
32787;DHT22;19139;49.372;8.580;2022-11-20T05:51:40;18.50;97.80
32787;DHT22;19139;49.372;8.580;2022-11-20T05:54:12;18.50;97.80
32787;DHT22;19139;49.372;8.580;2022-11-20T05:56:43;18.50;97.80
32787;DHT22;19139;49.372;8.580;2022-11-20T05:59:10;18.50;97.80
32787;DHT22;19139;49.372;8.580;2022-11-20T06:01:42;18.50;97.80
32787;DHT22;19139;49.372;8.580;2022-11-20T06:04:13;18.50;97.80
32787;DHT22;19139;49.372;8.580;2022-11-20T06:06:40;18.50;97.80
32787;DHT22;19139;49.372;8.580;2022-11-20T06:09:12;18.50;97.80
32787;DHT22;19139;49.372;8.580;2022-11-20T06:11:43;18.50;97.80
32787;DHT22;19139;49.372;8.580;2022-11-20T06:14:10;18.50;97.80
32787;DHT22;19139;49.372;8.580;2022-11-20T06:16:41;18.50;97.80
32787;DHT22;19139;49.372;8.580;2022-11-20T06:19:13;18.50;97.80
32787;DHT22;19139;49.372;8.580;2022-11-20T06:21:39;18.50;97.80
32787;DHT22;19139;49.372;8.580;2022-11-20T06:24:11;18.50;97.80
32787;DHT22;19139;49.372;8.580;2022-11-20T06:26:42;18.50;97.80
32787;DHT22;19139;49.372;8.580;2022-11-20T06:29:09;18.50;97.80
32787;DHT22;19139;49.372;8.580;2022-11-20T06:31:41;18.50;97.80
32787;DHT22;19139;49.372;8.580;2022-11-20T06:34:13;18.50;97.80
32787;DHT22;19139;49.372;8.580;2022-11-20T06:36:40;18.50;97.80
32787;DHT22;19139;49.372;8.580;2022-11-20T06:39:11;18.50;97.80
32787;DHT22;19139;49.372;8.580;2022-11-20T06:41:43;18.50;97.80
32787;DHT22;19139;49.372;8.580;2022-11-20T06:44:09;18.50;97.80
32787;DHT22;19139;49.372;8.580;2022-11-20T06:46:41;18.50;97.80
32787;DHT22;19139;49.372;8.580;2022-11-20T06:49:12;18.40;97.80
32787;DHT22;19139;49.372;8.580;2022-11-20T06:51:39;18.50;97.80
32787;DHT22;19139;49.372;8.580;2022-11-20T06:54:10;18.50;97.80
32787;DHT22;19139;49.372;8.580;2022-11-20T06:56:42;18.40;97.80
32787;DHT22;19139;49.372;8.580;2022-11-20T06:59:12;18.50;97.80
32787;DHT22;19139;49.372;8.580;2022-11-20T07:01:43;18.50;97.80
32787;DHT22;19139;49.372;8.580;2022-11-20T07:04:10;18.40;97.80
32787;DHT22;19139;49.372;8.580;2022-11-20T07:06:41;18.50;97.80
32787;DHT22;19139;49.372;8.580;2022-11-20T07:09:13;18.50;97.80
32787;DHT22;19139;49.372;8.580;2022-11-20T07:11:40;18.50;97.80
32787;DHT22;19139;49.372;8.580;2022-11-20T07:14:06;18.40;97.70
32787;DHT22;19139;49.372;8.580;2022-11-20T07:16:33;18.40;97.70
32787;DHT22;19139;49.372;8.580;2022-11-20T07:18:59;18.40;97.70
32787;DHT22;19139;49.372;8.580;2022-11-20T07:21:26;18.50;97.80
32787;DHT22;19139;49.372;8.580;2022-11-20T07:23:53;18.50;97.80
32787;DHT22;19139;49.372;8.580;2022-11-20T07:26:19;18.40;97.70
32787;DHT22;19139;49.372;8.580;2022-11-20T07:28:46;18.40;97.70
32787;DHT22;19139;49.372;8.580;2022-11-20T07:31:12;18.40;97.70
32787;DHT22;19139;49.372;8.580;2022-11-20T07:33:44;18.40;97.70
32787;DHT22;19139;49.372;8.580;2022-11-20T07:36:11;18.40;97.70
32787;DHT22;19139;49.372;8.580;2022-11-20T07:38:43;18.50;97.80
32787;DHT22;19139;49.372;8.580;2022-11-20T07:41:09;18.50;97.70
32787;DHT22;19139;49.372;8.580;2022-11-20T07:43:36;18.40;97.70
32787;DHT22;19139;49.372;8.580;2022-11-20T07:46:06;18.40;97.70
32787;DHT22;19139;49.372;8.580;2022-11-20T07:48:33;18.50;97.80
32787;DHT22;19139;49.372;8.580;2022-11-20T07:50:59;18.50;97.80
32787;DHT22;19139;49.372;8.580;2022-11-20T07:53:26;18.50;97.70
32787;DHT22;19139;49.372;8.580;2022-11-20T07:55:53;18.40;97.70
32787;DHT22;19139;49.372;8.580;2022-11-20T07:58:20;18.40;97.70
32787;DHT22;19139;49.372;8.580;2022-11-20T08:00:52;18.40;97.70
32787;DHT22;19139;49.372;8.580;2022-11-20T08:03:23;18.40;97.70
32787;DHT22;19139;49.372;8.580;2022-11-20T08:05:51;18.50;97.70
32787;DHT22;19139;49.372;8.580;2022-11-20T08:08:23;18.40;97.70
32787;DHT22;19139;49.372;8.580;2022-11-20T08:10:49;18.40;97.70
32787;DHT22;19139;49.372;8.580;2022-11-20T08:13:16;18.40;97.70
32787;DHT22;19139;49.372;8.580;2022-11-20T08:16:01;18.50;97.70
32787;DHT22;19139;49.372;8.580;2022-11-20T08:21:03;18.40;97.70
32787;DHT22;19139;49.372;8.580;2022-11-20T08:23:31;18.50;97.70
32787;DHT22;19139;49.372;8.580;2022-11-20T08:25:57;18.40;97.70
32787;DHT22;19139;49.372;8.580;2022-11-20T08:28:24;18.50;97.70
32787;DHT22;19139;49.372;8.580;2022-11-20T08:30:50;18.50;97.70
32787;DHT22;19139;49.372;8.580;2022-11-20T08:33:18;18.40;97.70
32787;DHT22;19139;49.372;8.580;2022-11-20T08:35:45;18.50;97.70
32787;DHT22;19139;49.372;8.580;2022-11-20T08:38:12;18.50;97.70
32787;DHT22;19139;49.372;8.580;2022-11-20T08:40:43;18.50;97.70
32787;DHT22;19139;49.372;8.580;2022-11-20T08:43:33;18.50;97.70
32787;DHT22;19139;49.372;8.580;2022-11-20T08:46:04;18.50;97.70
32787;DHT22;19139;49.372;8.580;2022-11-20T08:48:31;18.50;97.70
32787;DHT22;19139;49.372;8.580;2022-11-20T08:51:02;18.50;97.70
32787;DHT22;19139;49.372;8.580;2022-11-20T08:53:34;18.50;97.70
32787;DHT22;19139;49.372;8.580;2022-11-20T08:56:01;18.50;97.70
32787;DHT22;19139;49.372;8.580;2022-11-20T08:58:32;18.50;97.70
32787;DHT22;19139;49.372;8.580;2022-11-20T09:01:04;18.50;97.70
32787;DHT22;19139;49.372;8.580;2022-11-20T09:03:31;18.20;96.00
32787;DHT22;19139;49.372;8.580;2022-11-20T09:06:03;17.80;95.70
32787;DHT22;19139;49.372;8.580;2022-11-20T09:08:30;17.70;95.60
32787;DHT22;19139;49.372;8.580;2022-11-20T09:10:58;17.50;95.50
32787;DHT22;19139;49.372;8.580;2022-11-20T09:13:26;17.40;95.40
32787;DHT22;19139;49.372;8.580;2022-11-20T09:18:27;17.20;95.40
32787;DHT22;19139;49.372;8.580;2022-11-20T09:21:00;17.20;95.30
32787;DHT22;19139;49.372;8.580;2022-11-20T09:23:31;17.10;95.30
32787;DHT22;19139;49.372;8.580;2022-11-20T09:25:58;17.10;95.40
32787;DHT22;19139;49.372;8.580;2022-11-20T09:28:27;17.20;95.60
32787;DHT22;19139;49.372;8.580;2022-11-20T09:30:59;17.30;95.80
32787;DHT22;19139;49.372;8.580;2022-11-20T09:33:30;17.50;95.90
32787;DHT22;19139;49.372;8.580;2022-11-20T09:35:57;17.60;96.10
32787;DHT22;19139;49.372;8.580;2022-11-20T09:38:28;17.80;96.20
32787;DHT22;19139;49.372;8.580;2022-11-20T09:41:04;17.80;96.20
32787;DHT22;19139;49.372;8.580;2022-11-20T09:44:08;17.90;96.60
32787;DHT22;19139;49.372;8.580;2022-11-20T09:46:49;18.00;96.40
32787;DHT22;19139;49.372;8.580;2022-11-20T09:49:36;18.00;96.50
32787;DHT22;19139;49.372;8.580;2022-11-20T09:52:32;18.10;96.50
32787;DHT22;19139;49.372;8.580;2022-11-20T09:55:10;18.10;96.50
32787;DHT22;19139;49.372;8.580;2022-11-20T09:57:42;18.10;96.50
32787;DHT22;19139;49.372;8.580;2022-11-20T10:00:13;18.10;96.50
32787;DHT22;19139;49.372;8.580;2022-11-20T10:02:54;18.10;96.50
32787;DHT22;19139;49.372;8.580;2022-11-20T10:05:45;18.20;96.50
32787;DHT22;19139;49.372;8.580;2022-11-20T10:08:33;18.10;96.50
32787;DHT22;19139;49.372;8.580;2022-11-20T10:13:40;18.20;96.50
32787;DHT22;19139;49.372;8.580;2022-11-20T10:19:35;18.20;96.60
32787;DHT22;19139;49.372;8.580;2022-11-20T10:25:15;18.20;96.80
32787;DHT22;19139;49.372;8.580;2022-11-20T10:28:09;18.20;96.90
32787;DHT22;19139;49.372;8.580;2022-11-20T10:30:41;18.20;97.00
32787;DHT22;19139;49.372;8.580;2022-11-20T10:33:18;18.30;97.10
32787;DHT22;19139;49.372;8.580;2022-11-20T10:38:50;18.30;97.20
32787;DHT22;19139;49.372;8.580;2022-11-20T10:41:24;18.40;97.20
32787;DHT22;19139;49.372;8.580;2022-11-20T10:44:01;18.40;97.30
32787;DHT22;19139;49.372;8.580;2022-11-20T10:46:40;18.40;97.40
32787;DHT22;19139;49.372;8.580;2022-11-20T10:49:19;18.40;97.40
32787;DHT22;19139;49.372;8.580;2022-11-20T10:52:09;18.40;97.40
32787;DHT22;19139;49.372;8.580;2022-11-20T10:54:55;18.50;97.50
32787;DHT22;19139;49.372;8.580;2022-11-20T11:00:23;18.40;97.50
32787;DHT22;19139;49.372;8.580;2022-11-20T11:02:55;18.40;97.60
32787;DHT22;19139;49.372;8.580;2022-11-20T11:05:37;18.50;97.70
32787;DHT22;19139;49.372;8.580;2022-11-20T11:08:14;18.50;97.80
32787;DHT22;19139;49.372;8.580;2022-11-20T11:13:28;18.60;98.00
32787;DHT22;19139;49.372;8.580;2022-11-20T11:16:00;18.60;98.10
32787;DHT22;19139;49.372;8.580;2022-11-20T11:18:33;18.60;98.00
32787;DHT22;19139;49.372;8.580;2022-11-20T11:21:05;18.60;98.10
32787;DHT22;19139;49.372;8.580;2022-11-20T11:26:37;18.60;98.10
32787;DHT22;19139;49.372;8.580;2022-11-20T11:29:04;18.60;98.20
32787;DHT22;19139;49.372;8.580;2022-11-20T11:31:33;18.60;98.20
32787;DHT22;19139;49.372;8.580;2022-11-20T11:34:06;18.60;98.20
32787;DHT22;19139;49.372;8.580;2022-11-20T11:36:34;18.60;98.30
32787;DHT22;19139;49.372;8.580;2022-11-20T11:39:03;18.60;98.30
32787;DHT22;19139;49.372;8.580;2022-11-20T11:41:33;18.70;98.40
32787;DHT22;19139;49.372;8.580;2022-11-20T11:44:18;18.70;98.40
32787;DHT22;19139;49.372;8.580;2022-11-20T11:47:08;18.70;98.40
32787;DHT22;19139;49.372;8.580;2022-11-20T11:49:41;18.70;98.50
32787;DHT22;19139;49.372;8.580;2022-11-20T11:55:00;18.70;98.50
32787;DHT22;19139;49.372;8.580;2022-11-20T11:57:49;18.70;98.50
32787;DHT22;19139;49.372;8.580;2022-11-20T12:00:20;18.70;98.60
32787;DHT22;19139;49.372;8.580;2022-11-20T12:03:13;18.70;98.60
32787;DHT22;19139;49.372;8.580;2022-11-20T12:06:21;18.70;98.60
32787;DHT22;19139;49.372;8.580;2022-11-20T12:08:53;18.70;98.70
32787;DHT22;19139;49.372;8.580;2022-11-20T12:14:34;18.70;98.70
32787;DHT22;19139;49.372;8.580;2022-11-20T12:17:03;18.70;98.70
32787;DHT22;19139;49.372;8.580;2022-11-20T12:19:31;18.80;98.80
32787;DHT22;19139;49.372;8.580;2022-11-20T12:30:16;18.80;98.90
32787;DHT22;19139;49.372;8.580;2022-11-20T12:36:07;18.90;99.00
32787;DHT22;19139;49.372;8.580;2022-11-20T12:38:55;18.90;99.00
32787;DHT22;19139;49.372;8.580;2022-11-20T12:50:28;18.90;98.70
32787;DHT22;19139;49.372;8.580;2022-11-20T12:53:37;18.90;98.60
32787;DHT22;19139;49.372;8.580;2022-11-20T12:59:22;18.90;98.50
32787;DHT22;19139;49.372;8.580;2022-11-20T13:02:02;18.90;98.50
32787;DHT22;19139;49.372;8.580;2022-11-20T13:07:47;18.90;98.40
32787;DHT22;19139;49.372;8.580;2022-11-20T13:16:23;18.90;98.30
32787;DHT22;19139;49.372;8.580;2022-11-20T13:18:56;18.90;98.30
32787;DHT22;19139;49.372;8.580;2022-11-20T13:21:42;18.90;98.30
32787;DHT22;19139;49.372;8.580;2022-11-20T13:27:01;18.90;98.20
32787;DHT22;19139;49.372;8.580;2022-11-20T13:29:28;18.90;98.20
32787;DHT22;19139;49.372;8.580;2022-11-20T13:32:16;18.90;98.20
32787;DHT22;19139;49.372;8.580;2022-11-20T13:35:22;18.90;98.20
32787;DHT22;19139;49.372;8.580;2022-11-20T13:38:08;18.90;98.20
32787;DHT22;19139;49.372;8.580;2022-11-20T13:40:57;18.90;98.10
32787;DHT22;19139;49.372;8.580;2022-11-20T13:43:39;18.90;98.10
32787;DHT22;19139;49.372;8.580;2022-11-20T13:46:11;18.90;98.10
32787;DHT22;19139;49.372;8.580;2022-11-20T13:48:43;18.90;98.10
32787;DHT22;19139;49.372;8.580;2022-11-20T13:51:41;18.90;98.10
32787;DHT22;19139;49.372;8.580;2022-11-20T14:00:17;18.90;98.00
32787;DHT22;19139;49.372;8.580;2022-11-20T14:03:09;18.90;98.00
32787;DHT22;19139;49.372;8.580;2022-11-20T14:05:52;18.90;98.00
32787;DHT22;19139;49.372;8.580;2022-11-20T14:08:39;18.90;98.00
32787;DHT22;19139;49.372;8.580;2022-11-20T14:11:24;18.90;98.00
32787;DHT22;19139;49.372;8.580;2022-11-20T14:14:13;18.90;98.00
32787;DHT22;19139;49.372;8.580;2022-11-20T14:16:45;18.90;98.00
32787;DHT22;19139;49.372;8.580;2022-11-20T14:22:14;18.90;97.90
32787;DHT22;19139;49.372;8.580;2022-11-20T14:24:39;18.90;97.90
32787;DHT22;19139;49.372;8.580;2022-11-20T14:27:19;18.90;97.90
32787;DHT22;19139;49.372;8.580;2022-11-20T14:29:49;18.90;97.90
32787;DHT22;19139;49.372;8.580;2022-11-20T14:32:26;18.90;97.90
32787;DHT22;19139;49.372;8.580;2022-11-20T14:35:06;18.90;97.90
32787;DHT22;19139;49.372;8.580;2022-11-20T14:37:40;18.90;97.90
32787;DHT22;19139;49.372;8.580;2022-11-20T14:40:31;18.90;97.90
32787;DHT22;19139;49.372;8.580;2022-11-20T14:42:58;18.90;97.90
32787;DHT22;19139;49.372;8.580;2022-11-20T14:45:30;18.90;97.90
32787;DHT22;19139;49.372;8.580;2022-11-20T14:47:58;18.90;97.90
32787;DHT22;19139;49.372;8.580;2022-11-20T14:50:31;18.90;97.90
32787;DHT22;19139;49.372;8.580;2022-11-20T14:52:59;18.90;97.90
32787;DHT22;19139;49.372;8.580;2022-11-20T14:55:37;18.90;97.90
32787;DHT22;19139;49.372;8.580;2022-11-20T14:58:23;18.90;97.90
32787;DHT22;19139;49.372;8.580;2022-11-20T15:01:02;18.80;97.80
32787;DHT22;19139;49.372;8.580;2022-11-20T15:03:39;18.80;97.80
32787;DHT22;19139;49.372;8.580;2022-11-20T15:06:10;18.80;97.80
32787;DHT22;19139;49.372;8.580;2022-11-20T15:08:37;18.80;97.80
32787;DHT22;19139;49.372;8.580;2022-11-20T15:11:27;18.80;97.80
32787;DHT22;19139;49.372;8.580;2022-11-20T15:14:04;18.80;97.80
32787;DHT22;19139;49.372;8.580;2022-11-20T15:16:37;18.80;97.80
32787;DHT22;19139;49.372;8.580;2022-11-20T15:19:17;18.80;97.80
32787;DHT22;19139;49.372;8.580;2022-11-20T15:21:50;18.80;97.80
32787;DHT22;19139;49.372;8.580;2022-11-20T15:24:17;18.80;97.80
32787;DHT22;19139;49.372;8.580;2022-11-20T15:26:48;18.80;97.80
32787;DHT22;19139;49.372;8.580;2022-11-20T15:29:20;18.80;97.80
32787;DHT22;19139;49.372;8.580;2022-11-20T15:31:53;18.80;97.80
32787;DHT22;19139;49.372;8.580;2022-11-20T15:34:27;18.80;97.80
32787;DHT22;19139;49.372;8.580;2022-11-20T15:36:58;18.80;97.80
32787;DHT22;19139;49.372;8.580;2022-11-20T15:39:30;18.80;97.80
32787;DHT22;19139;49.372;8.580;2022-11-20T15:41:56;18.80;97.80
32787;DHT22;19139;49.372;8.580;2022-11-20T15:44:28;18.80;97.80
32787;DHT22;19139;49.372;8.580;2022-11-20T15:46:59;18.80;98.10
32787;DHT22;19139;49.372;8.580;2022-11-20T15:49:31;18.80;97.80
32787;DHT22;19139;49.372;8.580;2022-11-20T15:51:58;18.80;97.80
32787;DHT22;19139;49.372;8.580;2022-11-20T15:54:29;18.80;97.80
32787;DHT22;19139;49.372;8.580;2022-11-20T15:57:01;18.80;97.80
32787;DHT22;19139;49.372;8.580;2022-11-20T15:59:33;18.70;97.80
32787;DHT22;19139;49.372;8.580;2022-11-20T16:02:11;18.70;97.80
32787;DHT22;19139;49.372;8.580;2022-11-20T16:04:43;18.80;97.80
32787;DHT22;19139;49.372;8.580;2022-11-20T16:07:14;18.70;97.80
32787;DHT22;19139;49.372;8.580;2022-11-20T16:09:46;18.80;97.80
32787;DHT22;19139;49.372;8.580;2022-11-20T16:12:18;18.70;97.80
32787;DHT22;19139;49.372;8.580;2022-11-20T16:15:09;18.70;97.80
32787;DHT22;19139;49.372;8.580;2022-11-20T16:17:59;18.70;97.80
32787;DHT22;19139;49.372;8.580;2022-11-20T16:20:31;18.70;97.80
32787;DHT22;19139;49.372;8.580;2022-11-20T16:22:57;18.70;97.70
32787;DHT22;19139;49.372;8.580;2022-11-20T16:25:29;18.70;97.80
32787;DHT22;19139;49.372;8.580;2022-11-20T16:28:00;18.80;97.80
32787;DHT22;19139;49.372;8.580;2022-11-20T16:30:27;18.80;97.80
32787;DHT22;19139;49.372;8.580;2022-11-20T16:32:59;18.80;97.90
32787;DHT22;19139;49.372;8.580;2022-11-20T16:35:31;18.80;98.00
32787;DHT22;19139;49.372;8.580;2022-11-20T16:38:03;18.80;98.10
32787;DHT22;19139;49.372;8.580;2022-11-20T16:40:35;18.80;98.10
32787;DHT22;19139;49.372;8.580;2022-11-20T16:43:09;18.80;98.20
32787;DHT22;19139;49.372;8.580;2022-11-20T16:45:42;18.80;98.30
32787;DHT22;19139;49.372;8.580;2022-11-20T16:48:15;18.90;98.40
32787;DHT22;19139;49.372;8.580;2022-11-20T16:50:52;18.90;98.50
32787;DHT22;19139;49.372;8.580;2022-11-20T16:53:23;18.90;98.60
32787;DHT22;19139;49.372;8.580;2022-11-20T16:55:55;18.90;98.70
32787;DHT22;19139;49.372;8.580;2022-11-20T16:58:26;18.90;98.70
32787;DHT22;19139;49.372;8.580;2022-11-20T17:01:05;18.90;98.80
32787;DHT22;19139;49.372;8.580;2022-11-20T17:03:37;18.90;98.80
32787;DHT22;19139;49.372;8.580;2022-11-20T17:06:17;18.90;98.90
32787;DHT22;19139;49.372;8.580;2022-11-20T17:08:49;18.90;99.00
32787;DHT22;19139;49.372;8.580;2022-11-20T17:11:20;18.90;99.00
32787;DHT22;19139;49.372;8.580;2022-11-20T17:13:47;18.90;99.10
32787;DHT22;19139;49.372;8.580;2022-11-20T17:16:21;18.90;99.10
32787;DHT22;19139;49.372;8.580;2022-11-20T17:18:54;18.90;99.20
32787;DHT22;19139;49.372;8.580;2022-11-20T17:21:26;19.00;99.30
32787;DHT22;19139;49.372;8.580;2022-11-20T17:24:02;18.90;99.30